createdAt,value
2022-11-16T00:00:39.145Z,13.35
2022-11-16T00:02:11.670Z,13.36
2022-11-16T00:03:43.778Z,13.33
2022-11-16T00:05:15.632Z,13.35
2022-11-16T00:06:49.177Z,13.36
2022-11-16T00:08:20.851Z,13.36
2022-11-16T00:09:52.470Z,13.38
2022-11-16T00:11:24.110Z,13.39
2022-11-16T00:12:55.714Z,13.36
2022-11-16T00:14:31.586Z,13.38
2022-11-16T00:16:06.564Z,13.39
2022-11-16T00:17:38.278Z,13.39
2022-11-16T00:19:11.524Z,13.38
2022-11-16T00:20:43.128Z,13.35
2022-11-16T00:22:14.738Z,13.38
2022-11-16T00:23:46.329Z,13.36
2022-11-16T00:25:18.001Z,13.37
2022-11-16T00:26:50.963Z,13.35
2022-11-16T00:28:22.595Z,13.36
2022-11-16T00:29:54.259Z,13.35
2022-11-16T00:31:27.284Z,13.37
2022-11-16T00:33:00.508Z,13.39
2022-11-16T00:34:32.137Z,13.37
2022-11-16T00:36:06.514Z,13.38
2022-11-16T00:37:38.146Z,13.38
2022-11-16T00:39:11.673Z,13.39
2022-11-16T00:40:43.308Z,13.37
2022-11-16T00:42:14.963Z,13.36
2022-11-16T00:43:46.780Z,13.37
2022-11-16T00:45:18.381Z,13.36
2022-11-16T00:46:51.351Z,13.40
2022-11-16T00:48:23.024Z,13.36
2022-11-16T00:49:54.920Z,13.34
2022-11-16T00:51:26.541Z,13.34
2022-11-16T00:52:58.192Z,13.38
2022-11-16T00:54:29.958Z,13.39
2022-11-16T00:56:02.469Z,13.41
2022-11-16T00:57:37.933Z,13.40
2022-11-16T00:59:09.966Z,13.41
2022-11-16T01:00:43.046Z,13.44
2022-11-16T01:02:16.098Z,13.47
2022-11-16T01:03:47.944Z,13.46
2022-11-16T01:05:19.814Z,13.48
2022-11-16T01:06:51.592Z,13.47
2022-11-16T01:08:23.222Z,13.49
2022-11-16T01:09:54.861Z,13.46
2022-11-16T01:11:45.283Z,13.45
2022-11-16T01:13:16.894Z,13.37
2022-11-16T01:14:49.197Z,13.37
2022-11-16T01:16:23.600Z,13.38
2022-11-16T01:17:57.173Z,13.39
2022-11-16T01:19:29.292Z,13.39
2022-11-16T01:21:00.902Z,13.35
2022-11-16T01:22:34.601Z,13.38
2022-11-16T01:24:06.557Z,13.40
2022-11-16T01:25:38.204Z,13.39
2022-11-16T01:27:09.993Z,13.37
2022-11-16T01:28:44.436Z,13.31
2022-11-16T01:30:17.642Z,13.27
2022-11-16T01:32:00.007Z,13.27
2022-11-16T01:33:33.337Z,13.26
2022-11-16T01:35:06.456Z,13.24
2022-11-16T01:36:39.277Z,13.22
2022-11-16T01:38:11.223Z,13.22
2022-11-16T01:39:43.963Z,13.22
2022-11-16T01:41:17.524Z,13.23
2022-11-16T01:42:53.886Z,13.21
2022-11-16T01:45:04.895Z,13.21
2022-11-16T01:46:37.752Z,13.21
2022-11-16T01:48:14.336Z,13.21
2022-11-16T01:49:49.673Z,13.20
2022-11-16T01:51:24.631Z,13.20
2022-11-16T01:53:01.164Z,13.21
2022-11-16T01:54:40.982Z,13.21
2022-11-16T01:56:13.097Z,13.20
2022-11-16T01:57:55.775Z,13.15
2022-11-16T01:59:28.412Z,13.15
2022-11-16T02:01:00.712Z,13.18
2022-11-16T02:02:39.766Z,13.20
2022-11-16T02:04:14.615Z,13.20
2022-11-16T02:06:15.390Z,13.19
2022-11-16T02:08:35.543Z,13.18
2022-11-16T02:10:18.016Z,13.14
2022-11-16T02:12:08.552Z,13.16
2022-11-16T02:13:51.503Z,13.14
2022-11-16T02:15:28.197Z,13.15
2022-11-16T02:17:24.258Z,13.17
2022-11-16T02:19:19.575Z,13.14
2022-11-16T02:21:03.012Z,13.18
2022-11-16T02:22:53.022Z,13.21
2022-11-16T02:24:36.581Z,13.18
2022-11-16T02:26:23.362Z,13.18
2022-11-16T02:28:21.808Z,13.17
2022-11-16T02:29:55.899Z,13.18
2022-11-16T02:31:32.765Z,13.16
2022-11-16T02:33:09.700Z,13.17
2022-11-16T02:34:46.131Z,13.20
2022-11-16T02:36:22.423Z,13.22
2022-11-16T02:37:57.682Z,13.21
2022-11-16T02:39:32.592Z,13.20
2022-11-16T02:41:09.703Z,13.20
2022-11-16T02:42:45.827Z,13.19
2022-11-16T02:44:21.413Z,13.20
2022-11-16T02:46:00.236Z,13.21
2022-11-16T02:47:35.243Z,13.21
2022-11-16T02:49:12.394Z,13.22
2022-11-16T02:50:46.697Z,13.21
2022-11-16T02:52:20.000Z,13.22
2022-11-16T02:54:01.491Z,13.22
2022-11-16T02:55:34.580Z,13.21
2022-11-16T02:57:37.806Z,13.22
2022-11-16T02:59:13.121Z,13.21
2022-11-16T03:00:55.658Z,13.24
2022-11-16T03:02:39.612Z,13.29
2022-11-16T03:04:17.115Z,13.30
2022-11-16T03:05:53.560Z,13.33
2022-11-16T03:07:29.243Z,13.35
2022-11-16T03:09:06.431Z,13.37
2022-11-16T03:10:59.510Z,13.37
2022-11-16T03:12:35.387Z,13.39
2022-11-16T03:14:12.012Z,13.37
2022-11-16T03:15:44.248Z,13.37
2022-11-16T03:17:28.052Z,13.37
2022-11-16T03:19:05.526Z,13.37
2022-11-16T03:20:39.170Z,13.37
2022-11-16T03:22:14.255Z,13.37
2022-11-16T03:23:46.563Z,13.38
2022-11-16T03:25:20.150Z,13.37
2022-11-16T03:27:05.339Z,13.34
2022-11-16T03:28:47.742Z,13.34
2022-11-16T03:30:23.881Z,13.32
2022-11-16T03:32:07.559Z,13.33
2022-11-16T03:33:45.163Z,13.31
2022-11-16T03:35:23.309Z,13.29
2022-11-16T03:36:56.877Z,13.32
2022-11-16T03:38:29.916Z,13.31
2022-11-16T03:40:03.028Z,13.30
2022-11-16T03:41:40.361Z,13.30
2022-11-16T03:43:12.685Z,13.30
2022-11-16T03:44:47.983Z,13.33
2022-11-16T03:46:20.636Z,13.32
2022-11-16T03:47:52.287Z,13.34
2022-11-16T03:49:24.948Z,13.34
2022-11-16T03:50:59.762Z,13.32
2022-11-16T03:52:32.480Z,13.33
2022-11-16T03:54:05.081Z,13.33
2022-11-16T03:55:38.369Z,13.34
2022-11-16T03:57:15.501Z,13.34
2022-11-16T03:58:49.984Z,13.37
2022-11-16T04:00:22.713Z,13.37
2022-11-16T04:01:56.191Z,13.38
2022-11-16T04:03:27.836Z,13.36
2022-11-16T04:05:18.192Z,13.34
2022-11-16T04:07:09.381Z,13.31
2022-11-16T04:08:59.967Z,13.31
2022-11-16T04:10:50.373Z,13.29
2022-11-16T04:12:41.280Z,13.28
2022-11-16T04:14:37.264Z,13.29
2022-11-16T04:16:29.216Z,13.26
2022-11-16T04:18:19.735Z,13.25
2022-11-16T04:20:10.390Z,13.20
2022-11-16T04:22:04.615Z,13.15
2022-11-16T04:23:59.361Z,13.13
2022-11-16T04:25:33.168Z,13.12
2022-11-16T04:27:27.942Z,13.12
2022-11-16T04:28:59.638Z,13.12
2022-11-16T04:30:51.396Z,13.12
2022-11-16T04:32:42.536Z,13.14
2022-11-16T04:34:46.680Z,13.14
2022-11-16T04:36:36.980Z,13.14
2022-11-16T04:38:08.692Z,13.13
2022-11-16T04:39:42.728Z,13.12
2022-11-16T04:41:33.440Z,13.13
2022-11-16T04:43:05.462Z,13.15
2022-11-16T04:44:58.513Z,13.16
2022-11-16T04:46:52.977Z,13.19
2022-11-16T04:48:24.680Z,13.18
2022-11-16T04:49:58.667Z,13.18
2022-11-16T04:51:30.327Z,13.17
2022-11-16T04:53:03.116Z,13.17
2022-11-16T04:54:36.229Z,13.13
2022-11-16T04:56:09.471Z,13.14
2022-11-16T04:57:41.906Z,13.14
2022-11-16T04:59:13.745Z,13.14
2022-11-16T05:00:45.472Z,13.13
2022-11-16T05:02:17.867Z,13.13
2022-11-16T05:03:56.715Z,13.14
2022-11-16T05:05:28.612Z,13.16
2022-11-16T05:07:00.505Z,13.17
2022-11-16T05:08:32.484Z,13.17
2022-11-16T05:10:06.719Z,13.16
2022-11-16T05:11:40.092Z,13.17
2022-11-16T05:13:12.219Z,13.13
2022-11-16T05:14:44.571Z,13.12
2022-11-16T05:16:16.527Z,13.11
2022-11-16T05:17:48.389Z,13.12
2022-11-16T05:19:43.013Z,13.08
2022-11-16T05:21:14.978Z,13.06
2022-11-16T05:22:53.550Z,13.07
2022-11-16T05:24:34.664Z,13.08
2022-11-16T05:26:07.597Z,13.10
2022-11-16T05:27:40.584Z,13.10
2022-11-16T05:29:12.271Z,13.12
2022-11-16T05:30:45.280Z,13.13
2022-11-16T05:32:19.911Z,13.11
2022-11-16T05:33:51.816Z,13.10
2022-11-16T05:35:24.540Z,13.10
2022-11-16T05:36:57.381Z,13.07
2022-11-16T05:38:29.026Z,13.06
2022-11-16T05:40:03.913Z,13.07
2022-11-16T05:41:45.843Z,13.06
2022-11-16T05:43:18.819Z,13.03
2022-11-16T05:45:01.278Z,12.99
2022-11-16T05:46:33.076Z,12.98
2022-11-16T05:48:05.977Z,12.98
2022-11-16T05:49:37.741Z,12.97
2022-11-16T05:51:09.445Z,12.96
2022-11-16T05:52:41.196Z,12.95
2022-11-16T05:54:18.907Z,12.92
2022-11-16T05:55:50.772Z,12.90
2022-11-16T05:57:23.678Z,12.89
2022-11-16T05:58:57.263Z,12.86
2022-11-16T06:00:30.026Z,12.85
2022-11-16T06:02:04.723Z,12.84
2022-11-16T06:03:38.420Z,12.82
2022-11-16T06:05:10.082Z,12.81
2022-11-16T06:06:41.859Z,12.81
2022-11-16T06:08:13.577Z,12.82
2022-11-16T06:09:45.309Z,12.85
2022-11-16T06:11:23.014Z,12.87
2022-11-16T06:12:54.641Z,12.88
2022-11-16T06:14:27.948Z,12.87
2022-11-16T06:16:00.307Z,12.86
2022-11-16T06:17:33.813Z,12.87
2022-11-16T06:19:05.910Z,12.85
2022-11-16T06:20:39.278Z,12.81
2022-11-16T06:22:12.041Z,12.78
2022-11-16T06:23:44.142Z,12.73
2022-11-16T06:25:15.877Z,12.68
2022-11-16T06:26:49.135Z,12.63
2022-11-16T06:28:20.931Z,12.58
2022-11-16T06:29:54.271Z,12.53
2022-11-16T06:31:26.468Z,12.47
2022-11-16T06:32:59.457Z,12.41
2022-11-16T06:34:31.234Z,12.38
2022-11-16T06:36:03.463Z,12.34
2022-11-16T06:37:35.904Z,12.31
2022-11-16T06:39:08.134Z,12.26
2022-11-16T06:40:42.339Z,12.21
2022-11-16T06:42:14.202Z,12.17
2022-11-16T06:43:46.200Z,12.15
2022-11-16T06:45:20.919Z,12.12
2022-11-16T06:46:56.727Z,12.08
2022-11-16T06:48:30.973Z,12.01
2022-11-16T06:50:03.627Z,11.95
2022-11-16T06:51:36.555Z,11.91
2022-11-16T06:53:08.877Z,11.92
2022-11-16T06:54:41.632Z,11.89
2022-11-16T06:56:15.067Z,11.90
2022-11-16T06:57:55.516Z,11.91
2022-11-16T06:59:27.612Z,11.92
2022-11-16T07:01:06.946Z,11.91
2022-11-16T07:02:40.049Z,11.90
2022-11-16T07:04:15.449Z,11.86
2022-11-16T07:05:53.257Z,11.80
2022-11-16T07:07:26.194Z,11.79
2022-11-16T07:08:58.990Z,11.77
2022-11-16T07:10:34.905Z,11.76
2022-11-16T07:12:07.020Z,11.75
2022-11-16T07:13:42.008Z,11.73
2022-11-16T07:15:14.005Z,11.71
2022-11-16T07:16:49.390Z,11.70
2022-11-16T07:18:21.108Z,11.72
2022-11-16T07:19:52.776Z,11.73
2022-11-16T07:21:25.317Z,11.74
2022-11-16T07:23:02.978Z,11.76
2022-11-16T07:24:34.808Z,11.79
2022-11-16T07:26:08.275Z,11.80
2022-11-16T07:27:45.772Z,11.81
2022-11-16T07:29:17.528Z,11.82
2022-11-16T07:31:10.486Z,11.84
2022-11-16T07:32:44.019Z,11.87
2022-11-16T07:34:24.995Z,11.84
2022-11-16T07:36:09.884Z,11.83
2022-11-16T07:37:42.101Z,11.84
2022-11-16T07:39:13.920Z,11.84
2022-11-16T07:40:46.457Z,11.84
2022-11-16T07:42:21.203Z,11.83
2022-11-16T07:44:10.881Z,11.82
2022-11-16T07:45:45.363Z,11.84
2022-11-16T07:47:17.067Z,11.87
2022-11-16T07:48:50.035Z,11.88
2022-11-16T07:50:46.875Z,11.87
2022-11-16T07:52:20.076Z,11.84
2022-11-16T07:53:59.488Z,11.84
2022-11-16T07:55:32.214Z,11.84
2022-11-16T07:57:05.894Z,11.87
2022-11-16T07:58:38.755Z,11.88
2022-11-16T08:00:11.034Z,11.88
2022-11-16T08:01:46.840Z,11.86
2022-11-16T08:03:24.362Z,11.86
2022-11-16T08:05:00.612Z,11.87
2022-11-16T08:06:33.304Z,11.87
2022-11-16T08:08:05.341Z,11.89
2022-11-16T08:09:40.732Z,11.88
2022-11-16T08:11:15.782Z,11.88
2022-11-16T08:12:47.439Z,11.89
2022-11-16T08:14:19.264Z,11.89
2022-11-16T08:15:53.093Z,11.88
2022-11-16T08:17:24.774Z,11.89
2022-11-16T08:18:57.333Z,11.90
2022-11-16T08:20:31.324Z,11.91
2022-11-16T08:22:03.758Z,11.93
2022-11-16T08:23:37.513Z,11.98
2022-11-16T08:25:09.624Z,12.01
2022-11-16T08:26:42.864Z,12.04
2022-11-16T08:28:17.455Z,12.08
2022-11-16T08:29:49.144Z,12.11
2022-11-16T08:31:24.205Z,12.17
2022-11-16T08:32:59.104Z,12.20
2022-11-16T08:34:30.829Z,12.24
2022-11-16T08:36:13.651Z,12.26
2022-11-16T08:37:45.781Z,12.29
2022-11-16T08:39:17.863Z,12.29
2022-11-16T08:40:50.827Z,12.29
2022-11-16T08:42:22.624Z,12.28
2022-11-16T08:43:54.656Z,12.30
2022-11-16T08:45:27.421Z,12.34
2022-11-16T08:47:01.396Z,12.39
2022-11-16T08:48:41.847Z,12.41
2022-11-16T08:50:15.364Z,12.44
2022-11-16T08:51:49.031Z,12.45
2022-11-16T08:53:20.753Z,12.48
2022-11-16T08:54:53.238Z,12.51
2022-11-16T08:56:30.109Z,12.52
2022-11-16T08:58:02.097Z,12.54
2022-11-16T08:59:35.428Z,12.55
2022-11-16T09:01:14.858Z,12.59
2022-11-16T09:02:46.545Z,12.63
2022-11-16T09:04:18.706Z,12.69
2022-11-16T09:05:50.339Z,12.74
2022-11-16T09:07:23.580Z,12.78
2022-11-16T09:08:56.005Z,12.81
2022-11-16T09:10:27.636Z,12.85
2022-11-16T09:11:59.304Z,12.88
2022-11-16T09:13:31.189Z,12.89
2022-11-16T09:15:03.854Z,12.91
2022-11-16T09:16:35.499Z,12.96
2022-11-16T09:18:07.152Z,13.01
2022-11-16T09:19:38.824Z,13.00
2022-11-16T09:21:10.437Z,13.05
2022-11-16T09:22:43.432Z,13.10
2022-11-16T09:24:15.060Z,13.12
2022-11-16T09:25:48.380Z,13.22
2022-11-16T09:27:20.079Z,13.39
2022-11-16T09:28:55.167Z,13.55
2022-11-16T09:30:26.847Z,13.67
2022-11-16T09:31:59.900Z,13.77
2022-11-16T09:33:33.033Z,13.86
2022-11-16T09:35:05.480Z,13.84
2022-11-16T09:36:37.133Z,13.82
2022-11-16T09:38:10.135Z,13.79
2022-11-16T09:39:42.391Z,13.73
2022-11-16T09:41:35.443Z,13.70
2022-11-16T09:43:17.024Z,13.67
2022-11-16T09:44:59.463Z,13.71
2022-11-16T09:46:35.665Z,13.89
2022-11-16T09:48:12.305Z,14.06
2022-11-16T09:49:48.905Z,14.24
2022-11-16T09:51:24.874Z,14.31
2022-11-16T09:53:04.902Z,14.38
2022-11-16T09:54:39.694Z,14.49
2022-11-16T09:56:21.909Z,14.58
2022-11-16T09:57:58.394Z,14.61
2022-11-16T09:59:38.300Z,14.58
2022-11-16T10:01:22.317Z,14.52
2022-11-16T10:03:01.427Z,14.46
2022-11-16T10:04:38.560Z,14.46
2022-11-16T10:06:20.878Z,14.50
2022-11-16T10:07:58.942Z,14.50
2022-11-16T10:09:35.219Z,14.50
2022-11-16T10:11:34.216Z,14.50
2022-11-16T10:13:20.971Z,14.48
2022-11-16T10:15:36.137Z,14.44
2022-11-16T10:17:17.533Z,14.46
2022-11-16T10:18:56.041Z,14.46
2022-11-16T10:20:46.424Z,14.43
2022-11-16T10:22:34.099Z,14.43
2022-11-16T10:24:33.984Z,14.41
2022-11-16T10:26:17.856Z,14.43
2022-11-16T10:28:13.244Z,14.46
2022-11-16T10:29:53.107Z,14.48
2022-11-16T10:31:39.384Z,14.50
2022-11-16T10:33:16.892Z,14.53
2022-11-16T10:34:52.315Z,14.57
2022-11-16T10:36:27.398Z,14.57
2022-11-16T10:38:02.608Z,14.59
2022-11-16T10:39:36.580Z,14.56
2022-11-16T10:41:19.748Z,14.55
2022-11-16T10:43:00.296Z,14.57
2022-11-16T10:44:36.262Z,14.58
2022-11-16T10:46:15.454Z,14.59
2022-11-16T10:47:51.902Z,14.59
2022-11-16T10:49:32.335Z,14.54
2022-11-16T10:51:05.212Z,14.52
2022-11-16T10:52:36.886Z,14.52
2022-11-16T10:54:13.180Z,14.52
2022-11-16T10:55:44.851Z,14.54
2022-11-16T10:57:17.990Z,14.57
2022-11-16T10:58:55.763Z,14.60
2022-11-16T11:00:44.141Z,14.57
2022-11-16T11:02:31.955Z,14.51
2022-11-16T11:04:15.463Z,14.53
2022-11-16T11:05:52.347Z,14.56
2022-11-16T11:07:30.787Z,14.62
2022-11-16T11:09:14.806Z,14.62
2022-11-16T11:10:58.368Z,14.59
2022-11-16T11:12:40.526Z,14.57
2022-11-16T11:14:15.385Z,14.60
2022-11-16T11:15:48.060Z,14.61
2022-11-16T11:17:19.672Z,14.61
2022-11-16T11:18:51.453Z,14.58
2022-11-16T11:20:24.398Z,14.62
2022-11-16T11:21:57.296Z,14.66
2022-11-16T11:23:29.023Z,14.69
2022-11-16T11:25:03.464Z,14.68
2022-11-16T11:26:38.568Z,14.65
2022-11-16T11:28:21.036Z,14.64
2022-11-16T11:29:55.351Z,14.61
2022-11-16T11:31:34.067Z,14.59
2022-11-16T11:33:11.333Z,14.59
2022-11-16T11:34:47.207Z,14.63
2022-11-16T11:36:21.341Z,14.62
2022-11-16T11:37:55.511Z,14.63
2022-11-16T11:39:32.713Z,14.65
2022-11-16T11:41:07.312Z,14.61
2022-11-16T11:42:50.941Z,14.60
2022-11-16T11:44:32.090Z,14.60
2022-11-16T11:46:09.435Z,14.59
2022-11-16T11:47:58.082Z,14.59
2022-11-16T11:49:36.473Z,14.56
2022-11-16T11:51:15.613Z,14.51
2022-11-16T11:52:58.766Z,14.47
2022-11-16T11:54:35.964Z,14.49
2022-11-16T11:56:10.357Z,14.56
2022-11-16T11:57:45.557Z,14.52
2022-11-16T11:59:21.675Z,14.55
2022-11-16T12:01:04.019Z,14.52
2022-11-16T12:02:50.648Z,14.54
2022-11-16T12:04:49.342Z,14.53
2022-11-16T12:06:31.396Z,14.54
2022-11-16T12:08:20.304Z,14.52
2022-11-16T12:09:57.883Z,14.55
2022-11-16T12:11:40.054Z,14.54
2022-11-16T12:13:33.079Z,14.55
2022-11-16T12:15:26.466Z,14.56
2022-11-16T12:17:07.336Z,14.55
2022-11-16T12:18:53.159Z,14.56
2022-11-16T12:20:32.663Z,14.58
2022-11-16T12:22:14.084Z,14.60
2022-11-16T12:24:00.783Z,14.61
2022-11-16T12:25:46.034Z,14.64
2022-11-16T12:27:28.555Z,14.67
2022-11-16T12:29:13.088Z,14.69
2022-11-16T12:30:59.195Z,14.70
2022-11-16T12:32:51.082Z,14.69
2022-11-16T12:34:33.772Z,14.75
2022-11-16T12:36:14.925Z,14.84
2022-11-16T12:38:00.538Z,14.88
2022-11-16T12:39:35.742Z,14.94
2022-11-16T12:41:31.406Z,14.99
2022-11-16T12:43:11.269Z,15.04
2022-11-16T12:45:02.048Z,15.05
2022-11-16T12:46:45.482Z,15.09
2022-11-16T12:48:51.943Z,15.15
2022-11-16T12:50:42.164Z,15.17
2022-11-16T12:52:32.909Z,15.21
2022-11-16T12:54:38.642Z,15.30
2022-11-16T12:56:21.812Z,15.37
2022-11-16T12:58:06.412Z,15.43
2022-11-16T12:59:57.539Z,15.47
2022-11-16T13:01:36.327Z,15.43
2022-11-16T13:03:17.372Z,15.38
2022-11-16T13:04:57.501Z,15.33
2022-11-16T13:06:33.562Z,15.28
2022-11-16T13:08:10.638Z,15.24
2022-11-16T13:09:45.959Z,15.22
2022-11-16T13:11:22.755Z,15.25
2022-11-16T13:13:29.794Z,15.31
2022-11-16T13:14:56.026Z,15.37
2022-11-16T13:16:28.955Z,15.41
2022-11-16T13:18:03.194Z,15.43
2022-11-16T13:19:39.775Z,15.49
2022-11-16T13:21:22.654Z,15.57
2022-11-16T13:23:01.806Z,15.62
2022-11-16T13:24:44.223Z,15.67
2022-11-16T13:26:23.409Z,15.71
2022-11-16T13:28:00.569Z,15.74
2022-11-16T13:29:37.633Z,15.76
2022-11-16T13:31:14.396Z,15.74
2022-11-16T13:32:58.496Z,15.71
2022-11-16T13:34:32.840Z,15.70
2022-11-16T13:36:43.530Z,15.66
2022-11-16T13:38:52.511Z,15.53
2022-11-16T13:40:27.426Z,15.43
2022-11-16T13:42:07.533Z,15.40
2022-11-16T13:43:48.010Z,15.36
2022-11-16T13:45:21.996Z,15.35
2022-11-16T13:46:57.175Z,15.34
2022-11-16T13:48:34.366Z,15.35
2022-11-16T13:50:17.736Z,15.34
2022-11-16T13:51:56.490Z,15.28
2022-11-16T13:55:30.044Z,15.18
2022-11-16T13:57:04.869Z,15.11
2022-11-16T13:58:43.892Z,15.08
2022-11-16T14:00:22.644Z,15.04
2022-11-16T14:01:56.792Z,15.03
2022-11-16T14:03:39.417Z,15.02
2022-11-16T14:05:15.815Z,14.99
2022-11-16T14:06:59.427Z,14.98
2022-11-16T14:08:51.193Z,14.94
2022-11-16T14:11:01.648Z,14.92
2022-11-16T14:12:51.630Z,14.89
2022-11-16T14:14:37.992Z,14.84
2022-11-16T14:16:41.649Z,14.80
2022-11-16T14:18:36.901Z,14.75
2022-11-16T14:20:12.620Z,14.78
2022-11-16T14:21:53.526Z,14.77
2022-11-16T14:23:48.922Z,14.72
2022-11-16T14:25:30.067Z,14.71
2022-11-16T14:27:13.237Z,14.72
2022-11-16T14:29:15.284Z,14.71
2022-11-16T14:30:58.526Z,14.72
2022-11-16T14:32:37.003Z,14.72
2022-11-16T14:34:17.354Z,14.70
2022-11-16T14:35:53.703Z,14.64
2022-11-16T14:37:33.044Z,14.62
2022-11-16T14:39:31.880Z,14.58
2022-11-16T14:41:06.481Z,14.56
2022-11-16T14:43:14.850Z,14.55
2022-11-16T14:44:39.825Z,14.53
2022-11-16T14:46:21.915Z,14.57
2022-11-16T14:47:58.675Z,14.55
2022-11-16T14:49:34.599Z,14.51
2022-11-16T14:51:09.973Z,14.50
2022-11-16T14:52:45.334Z,14.44
2022-11-16T14:54:25.763Z,14.43
2022-11-16T14:56:07.522Z,14.39
2022-11-16T14:57:39.260Z,14.36
2022-11-16T14:59:17.675Z,14.37
2022-11-16T15:00:54.025Z,14.40
2022-11-16T15:02:27.546Z,14.42
2022-11-16T15:04:02.478Z,14.38
2022-11-16T15:05:36.500Z,14.36
2022-11-16T15:07:08.493Z,14.37
2022-11-16T15:08:45.236Z,14.38
2022-11-16T15:10:19.733Z,14.38
2022-11-16T15:12:10.875Z,14.37
2022-11-16T15:13:45.602Z,14.38
2022-11-16T15:15:22.292Z,14.37
2022-11-16T15:16:56.095Z,14.36
2022-11-16T15:18:27.778Z,14.36
2022-11-16T15:20:01.254Z,14.36
2022-11-16T15:21:32.837Z,14.32
2022-11-16T15:23:13.034Z,14.32
2022-11-16T15:24:53.143Z,14.31
2022-11-16T15:26:24.905Z,14.26
2022-11-16T15:27:59.882Z,14.25
2022-11-16T15:29:31.816Z,14.20
2022-11-16T15:31:07.034Z,14.18
2022-11-16T15:32:41.352Z,14.12
2022-11-16T15:34:14.152Z,14.09
2022-11-16T15:35:47.179Z,14.05
2022-11-16T15:37:27.310Z,14.04
2022-11-16T15:39:00.565Z,14.01
2022-11-16T15:40:34.192Z,13.98
2022-11-16T15:42:06.272Z,13.95
2022-11-16T15:43:49.689Z,13.94
2022-11-16T15:45:33.072Z,13.91
2022-11-16T15:47:06.235Z,13.89
2022-11-16T15:48:39.047Z,13.88
2022-11-16T15:50:16.610Z,13.88
2022-11-16T15:51:48.231Z,13.89
2022-11-16T15:53:34.836Z,13.90
2022-11-16T15:55:19.675Z,13.87
2022-11-16T15:56:54.927Z,13.86
2022-11-16T15:58:29.266Z,13.83
2022-11-16T16:00:00.927Z,13.82
2022-11-16T16:01:42.115Z,13.77
2022-11-16T16:03:21.828Z,13.76
2022-11-16T16:04:53.488Z,13.74
2022-11-16T16:06:46.400Z,13.72
2022-11-16T16:08:30.476Z,13.71
2022-11-16T16:10:13.413Z,13.70
2022-11-16T16:11:45.220Z,13.68
2022-11-16T16:13:25.115Z,13.65
2022-11-16T16:15:22.699Z,13.64
2022-11-16T16:16:57.380Z,13.62
2022-11-16T16:18:40.601Z,13.59
2022-11-16T16:20:18.485Z,13.54
2022-11-16T16:21:50.958Z,13.52
2022-11-16T16:23:25.460Z,13.51
2022-11-16T16:24:57.346Z,13.50
2022-11-16T16:26:28.981Z,13.47
2022-11-16T16:28:00.643Z,13.44
2022-11-16T16:29:32.769Z,13.42
2022-11-16T16:31:04.500Z,13.40
2022-11-16T16:32:37.957Z,13.36
2022-11-16T16:34:12.580Z,13.33
2022-11-16T16:35:45.484Z,13.31
2022-11-16T16:37:17.363Z,13.27
2022-11-16T16:38:49.027Z,13.27
2022-11-16T16:40:20.640Z,13.24
2022-11-16T16:41:52.407Z,13.21
2022-11-16T16:43:24.027Z,13.18
2022-11-16T16:44:59.165Z,13.15
2022-11-16T16:46:30.780Z,13.14
2022-11-16T16:48:04.001Z,13.14
2022-11-16T16:49:35.822Z,13.15
2022-11-16T16:51:11.447Z,13.15
2022-11-16T16:52:43.055Z,13.13
2022-11-16T16:54:17.841Z,13.11
2022-11-16T16:55:49.819Z,13.09
2022-11-16T16:57:21.540Z,13.05
2022-11-16T16:58:53.249Z,13.01
2022-11-16T17:00:25.829Z,12.99
2022-11-16T17:01:57.770Z,12.96
2022-11-16T17:03:31.840Z,12.94
2022-11-16T17:05:04.241Z,12.89
2022-11-16T17:06:35.898Z,12.88
2022-11-16T17:08:07.625Z,12.85
2022-11-16T17:09:39.243Z,12.83
2022-11-16T17:11:12.275Z,12.82
2022-11-16T17:12:44.204Z,12.82
2022-11-16T17:14:15.881Z,12.81
2022-11-16T17:15:47.501Z,12.81
2022-11-16T17:17:19.543Z,12.80
2022-11-16T17:18:55.900Z,12.76
2022-11-16T17:20:27.657Z,12.74
2022-11-16T17:21:59.939Z,12.73
2022-11-16T17:23:31.918Z,12.69
2022-11-16T17:25:04.123Z,12.68
2022-11-16T17:26:35.769Z,12.70
2022-11-16T17:28:07.374Z,12.73
2022-11-16T17:29:39.025Z,12.75
2022-11-16T17:31:12.210Z,12.79
2022-11-16T17:32:43.865Z,12.82
2022-11-16T17:34:16.872Z,12.86
2022-11-16T17:35:54.978Z,12.88
2022-11-16T17:37:26.755Z,12.91
2022-11-16T17:38:58.517Z,12.92
2022-11-16T17:40:30.354Z,12.93
2022-11-16T17:42:01.992Z,12.96
2022-11-16T17:43:34.214Z,12.99
2022-11-16T17:45:07.306Z,13.02
2022-11-16T17:46:39.003Z,13.03
2022-11-16T17:48:11.604Z,13.03
2022-11-16T17:49:46.038Z,13.03
2022-11-16T17:51:19.366Z,13.01
2022-11-16T17:52:51.018Z,12.98
2022-11-16T17:54:22.633Z,12.97
2022-11-16T17:55:54.537Z,12.92
2022-11-16T17:57:26.227Z,12.89
2022-11-16T17:59:01.196Z,12.82
2022-11-16T18:00:32.841Z,12.80
2022-11-16T18:02:04.551Z,12.76
2022-11-16T18:03:37.197Z,12.75
2022-11-16T18:05:10.547Z,12.75
2022-11-16T18:06:42.134Z,12.77
2022-11-16T18:08:13.762Z,12.77
2022-11-16T18:09:45.351Z,12.78
2022-11-16T18:11:18.666Z,12.76
2022-11-16T18:12:50.359Z,12.73
2022-11-16T18:14:21.989Z,12.71
2022-11-16T18:15:53.583Z,12.68
2022-11-16T18:17:25.509Z,12.67
2022-11-16T18:18:58.773Z,12.67
2022-11-16T18:20:36.295Z,12.64
2022-11-16T18:22:07.945Z,12.61
2022-11-16T18:23:40.018Z,12.56
2022-11-16T18:25:11.665Z,12.52
2022-11-16T18:26:43.268Z,12.51
2022-11-16T18:28:17.422Z,12.51
2022-11-16T18:29:49.053Z,12.51
2022-11-16T18:31:23.710Z,12.48
2022-11-16T18:32:55.630Z,12.47
2022-11-16T18:34:27.318Z,12.45
2022-11-16T18:36:00.344Z,12.38
2022-11-16T18:37:31.980Z,12.32
2022-11-16T18:39:03.762Z,12.30
2022-11-16T18:40:35.407Z,12.27
2022-11-16T18:42:07.462Z,12.26
2022-11-16T18:43:39.435Z,12.26
2022-11-16T18:45:11.103Z,12.24
2022-11-16T18:46:42.803Z,12.25
2022-11-16T18:48:14.412Z,12.27
2022-11-16T18:49:46.162Z,12.25
2022-11-16T18:51:20.416Z,12.22
2022-11-16T18:52:52.222Z,12.22
2022-11-16T18:54:23.922Z,12.22
2022-11-16T18:55:58.006Z,12.20
2022-11-16T18:57:30.169Z,12.18
2022-11-16T18:59:01.921Z,12.16
2022-11-16T19:00:33.675Z,12.15
2022-11-16T19:02:05.357Z,12.15
2022-11-16T19:03:37.325Z,12.13
2022-11-16T19:05:09.414Z,12.12
2022-11-16T19:06:42.452Z,12.13
2022-11-16T19:08:14.469Z,12.13
2022-11-16T19:09:46.095Z,12.14
2022-11-16T19:11:18.120Z,12.17
2022-11-16T19:12:49.774Z,12.22
2022-11-16T19:14:21.464Z,12.26
2022-11-16T19:15:55.097Z,12.28
2022-11-16T19:17:27.938Z,12.31
2022-11-16T19:19:01.418Z,12.33
2022-11-16T19:20:35.912Z,12.33
2022-11-16T19:22:08.866Z,12.34
2022-11-16T19:23:45.967Z,12.36
2022-11-16T19:25:17.743Z,12.38
2022-11-16T19:26:49.426Z,12.41
2022-11-16T19:28:21.192Z,12.44
2022-11-16T19:29:53.029Z,12.45
2022-11-16T19:31:26.365Z,12.49
2022-11-16T19:32:59.296Z,12.48
2022-11-16T19:34:33.420Z,12.50
2022-11-16T19:36:07.019Z,12.47
2022-11-16T19:37:39.997Z,12.48
2022-11-16T19:39:11.634Z,12.52
2022-11-16T19:40:43.292Z,12.52
2022-11-16T19:42:15.186Z,12.52
2022-11-16T19:43:47.087Z,12.54
2022-11-16T19:45:18.719Z,12.52
2022-11-16T19:46:50.407Z,12.48
2022-11-16T19:48:22.056Z,12.51
2022-11-16T19:49:53.653Z,12.48
2022-11-16T19:51:27.698Z,12.48
2022-11-16T19:53:00.690Z,12.51
2022-11-16T19:54:32.434Z,12.51
2022-11-16T19:56:04.913Z,12.50
2022-11-16T19:57:36.653Z,12.47
2022-11-16T19:59:08.512Z,12.47
2022-11-16T20:00:40.223Z,12.48
2022-11-16T20:02:11.861Z,12.50
2022-11-16T20:03:44.031Z,12.48
2022-11-16T20:05:15.623Z,12.50
2022-11-16T20:06:47.590Z,12.53
2022-11-16T20:08:20.667Z,12.55
2022-11-16T20:09:53.580Z,12.54
2022-11-16T20:11:27.537Z,12.56
2022-11-16T20:12:59.238Z,12.55
2022-11-16T20:14:31.051Z,12.59
2022-11-16T20:16:02.806Z,12.61
2022-11-16T20:17:34.470Z,12.64
2022-11-16T20:19:07.416Z,12.64
2022-11-16T20:20:39.153Z,12.64
2022-11-16T20:22:11.366Z,12.61
2022-11-16T20:23:45.451Z,12.58
2022-11-16T20:25:17.093Z,12.52
2022-11-16T20:26:49.125Z,12.56
2022-11-16T20:28:20.749Z,12.58
2022-11-16T20:29:52.357Z,12.57
2022-11-16T20:31:25.203Z,12.59
2022-11-16T20:32:56.917Z,12.58
2022-11-16T20:34:29.089Z,12.58
2022-11-16T20:36:02.201Z,12.58
2022-11-16T20:37:36.266Z,12.58
2022-11-16T20:39:13.864Z,12.57
2022-11-16T20:40:45.482Z,12.60
2022-11-16T20:42:17.101Z,12.60
2022-11-16T20:43:51.120Z,12.63
2022-11-16T20:45:22.761Z,12.63
2022-11-16T20:46:54.417Z,12.61